sensor_id;sensor_type;location;lat;lon;timestamp;pressure;altitude;pressure_sealevel;temperature;humidity
8894;BME280;4483;48.622;9.230;2023-06-22T00:02:01;97882.84;;;22.29;95.22
8894;BME280;4483;48.622;9.230;2023-06-22T00:04:28;97885.47;;;22.19;95.34
8894;BME280;4483;48.622;9.230;2023-06-22T00:06:54;97875.22;;;22.16;96.07
8894;BME280;4483;48.622;9.230;2023-06-22T00:09:21;97874.25;;;22.17;96.11
8894;BME280;4483;48.622;9.230;2023-06-22T00:11:48;97871.38;;;22.20;96.16
8894;BME280;4483;48.622;9.230;2023-06-22T00:14:14;97878.97;;;22.23;95.90
8894;BME280;4483;48.622;9.230;2023-06-22T00:16:41;97881.03;;;22.20;95.50
8894;BME280;4483;48.622;9.230;2023-06-22T00:19:09;97883.78;;;22.18;95.65
8894;BME280;4483;48.622;9.230;2023-06-22T00:21:37;97885.97;;;22.13;95.15
8894;BME280;4483;48.622;9.230;2023-06-22T00:24:04;97891.03;;;22.05;96.07
8894;BME280;4483;48.622;9.230;2023-06-22T00:26:32;97888.00;;;22.00;96.15
8894;BME280;4483;48.622;9.230;2023-06-22T00:28:59;97889.63;;;21.91;96.46
8894;BME280;4483;48.622;9.230;2023-06-22T00:31:25;97900.25;;;21.90;96.71
8894;BME280;4483;48.622;9.230;2023-06-22T00:33:52;97886.28;;;21.89;97.09
8894;BME280;4483;48.622;9.230;2023-06-22T00:36:20;97888.09;;;21.89;97.13
8894;BME280;4483;48.622;9.230;2023-06-22T00:38:46;97883.53;;;21.91;97.18
8894;BME280;4483;48.622;9.230;2023-06-22T00:41:16;97874.72;;;21.92;96.82
8894;BME280;4483;48.622;9.230;2023-06-22T00:43:42;97865.44;;;21.88;96.39
8894;BME280;4483;48.622;9.230;2023-06-22T00:46:09;97861.91;;;21.78;97.12
8894;BME280;4483;48.622;9.230;2023-06-22T00:48:36;97871.56;;;21.77;97.57
8894;BME280;4483;48.622;9.230;2023-06-22T00:51:03;97868.00;;;21.78;97.32
8894;BME280;4483;48.622;9.230;2023-06-22T00:53:31;97863.63;;;21.79;97.40
8894;BME280;4483;48.622;9.230;2023-06-22T00:56:00;97870.22;;;21.83;97.54
8894;BME280;4483;48.622;9.230;2023-06-22T00:58:28;97884.75;;;21.87;96.89
8894;BME280;4483;48.622;9.230;2023-06-22T01:00:55;97891.53;;;21.89;96.80
8894;BME280;4483;48.622;9.230;2023-06-22T01:03:22;97882.13;;;21.87;96.81
8894;BME280;4483;48.622;9.230;2023-06-22T01:05:49;97879.34;;;21.79;96.73
8894;BME280;4483;48.622;9.230;2023-06-22T01:08:23;97890.03;;;21.76;97.14
8894;BME280;4483;48.622;9.230;2023-06-22T01:11:01;97892.66;;;21.76;97.01
8894;BME280;4483;48.622;9.230;2023-06-22T01:13:35;97891.03;;;21.75;97.05
8894;BME280;4483;48.622;9.230;2023-06-22T01:16:08;97877.59;;;21.68;97.22
8894;BME280;4483;48.622;9.230;2023-06-22T01:18:39;97894.28;;;21.67;97.44
8894;BME280;4483;48.622;9.230;2023-06-22T01:21:08;97909.88;;;21.69;97.24
8894;BME280;4483;48.622;9.230;2023-06-22T01:23:54;97912.91;;;21.64;97.42
8894;BME280;4483;48.622;9.230;2023-06-22T01:26:35;97893.28;;;21.59;97.09
8894;BME280;4483;48.622;9.230;2023-06-22T01:29:05;97899.53;;;21.47;97.76
8894;BME280;4483;48.622;9.230;2023-06-22T01:31:34;97894.28;;;21.47;98.54
8894;BME280;4483;48.622;9.230;2023-06-22T01:34:03;97898.47;;;21.49;98.49
8894;BME280;4483;48.622;9.230;2023-06-22T01:36:32;97887.00;;;21.50;98.14
8894;BME280;4483;48.622;9.230;2023-06-22T01:39:00;97883.56;;;21.50;98.14
8894;BME280;4483;48.622;9.230;2023-06-22T01:41:30;97885.50;;;21.48;98.20
8894;BME280;4483;48.622;9.230;2023-06-22T01:43:57;97890.59;;;21.49;98.77
8894;BME280;4483;48.622;9.230;2023-06-22T01:46:27;97891.59;;;21.58;98.43
8894;BME280;4483;48.622;9.230;2023-06-22T01:48:54;97881.97;;;21.58;97.75
8894;BME280;4483;48.622;9.230;2023-06-22T01:51:21;97874.44;;;21.44;97.25
8894;BME280;4483;48.622;9.230;2023-06-22T01:53:48;97878.44;;;21.28;98.11
8894;BME280;4483;48.622;9.230;2023-06-22T01:56:16;97885.13;;;21.21;99.28
8894;BME280;4483;48.622;9.230;2023-06-22T01:58:47;97887.75;;;21.21;99.25
8894;BME280;4483;48.622;9.230;2023-06-22T02:01:20;97890.97;;;21.24;99.30
8894;BME280;4483;48.622;9.230;2023-06-22T02:04:00;97880.22;;;21.27;99.25
8894;BME280;4483;48.622;9.230;2023-06-22T02:06:33;97879.25;;;21.28;99.22
8894;BME280;4483;48.622;9.230;2023-06-22T02:09:07;97887.03;;;21.30;99.03
8894;BME280;4483;48.622;9.230;2023-06-22T02:11:36;97888.81;;;21.29;98.91
8894;BME280;4483;48.622;9.230;2023-06-22T02:14:04;97891.78;;;21.25;98.51
8894;BME280;4483;48.622;9.230;2023-06-22T02:16:32;97889.44;;;21.22;99.09
8894;BME280;4483;48.622;9.230;2023-06-22T02:19:01;97897.16;;;21.23;99.38
8894;BME280;4483;48.622;9.230;2023-06-22T02:21:29;97890.00;;;21.25;98.67
8894;BME280;4483;48.622;9.230;2023-06-22T02:23:56;97894.69;;;21.22;99.21
8894;BME280;4483;48.622;9.230;2023-06-22T02:26:23;97890.50;;;21.19;99.22
8894;BME280;4483;48.622;9.230;2023-06-22T02:28:51;97895.03;;;21.17;99.24
8894;BME280;4483;48.622;9.230;2023-06-22T02:31:18;97896.44;;;21.21;99.04
8894;BME280;4483;48.622;9.230;2023-06-22T02:33:45;97890.28;;;21.22;99.16
8894;BME280;4483;48.622;9.230;2023-06-22T02:36:15;97892.19;;;21.20;98.78
8894;BME280;4483;48.622;9.230;2023-06-22T02:38:41;97888.00;;;21.18;98.85
8894;BME280;4483;48.622;9.230;2023-06-22T02:41:13;97883.75;;;21.17;98.78
8894;BME280;4483;48.622;9.230;2023-06-22T02:43:43;97893.00;;;21.21;98.67
8894;BME280;4483;48.622;9.230;2023-06-22T02:46:10;97885.84;;;21.23;98.25
8894;BME280;4483;48.622;9.230;2023-06-22T02:48:38;97878.38;;;21.18;98.15
8894;BME280;4483;48.622;9.230;2023-06-22T02:51:05;97872.69;;;21.13;98.33
8894;BME280;4483;48.622;9.230;2023-06-22T02:53:33;97870.16;;;21.12;98.62
8894;BME280;4483;48.622;9.230;2023-06-22T02:56:00;97879.00;;;21.11;98.65
8894;BME280;4483;48.622;9.230;2023-06-22T02:58:27;97873.63;;;21.12;98.57
8894;BME280;4483;48.622;9.230;2023-06-22T03:00:54;97871.00;;;21.12;98.05
8894;BME280;4483;48.622;9.230;2023-06-22T03:03:20;97862.84;;;21.06;98.49
8894;BME280;4483;48.622;9.230;2023-06-22T03:05:47;97851.88;;;21.00;98.27
8894;BME280;4483;48.622;9.230;2023-06-22T03:08:14;97848.56;;;20.98;98.51
8894;BME280;4483;48.622;9.230;2023-06-22T03:10:42;97845.94;;;20.98;98.53
8894;BME280;4483;48.622;9.230;2023-06-22T03:13:08;97853.31;;;21.05;98.36
8894;BME280;4483;48.622;9.230;2023-06-22T03:15:35;97853.31;;;21.05;98.00
8894;BME280;4483;48.622;9.230;2023-06-22T03:18:01;97854.28;;;21.04;97.84
8894;BME280;4483;48.622;9.230;2023-06-22T03:20:28;97853.69;;;21.00;97.49
8894;BME280;4483;48.622;9.230;2023-06-22T03:22:59;97848.09;;;20.93;97.57
8894;BME280;4483;48.622;9.230;2023-06-22T03:25:25;97849.19;;;20.91;97.84
8894;BME280;4483;48.622;9.230;2023-06-22T03:27:53;97847.50;;;20.90;97.73
8894;BME280;4483;48.622;9.230;2023-06-22T03:30:20;97855.75;;;20.85;97.46
8894;BME280;4483;48.622;9.230;2023-06-22T03:32:46;97856.81;;;20.83;97.49
8894;BME280;4483;48.622;9.230;2023-06-22T03:35:13;97857.22;;;20.78;97.56
8894;BME280;4483;48.622;9.230;2023-06-22T03:37:40;97839.69;;;20.79;98.04
8894;BME280;4483;48.622;9.230;2023-06-22T03:40:08;97847.41;;;20.80;97.67
8894;BME280;4483;48.622;9.230;2023-06-22T03:42:34;97847.53;;;20.79;97.91
8894;BME280;4483;48.622;9.230;2023-06-22T03:45:03;97843.03;;;20.81;97.79
8894;BME280;4483;48.622;9.230;2023-06-22T03:47:30;97849.09;;;20.81;97.57
8894;BME280;4483;48.622;9.230;2023-06-22T03:49:56;97837.44;;;20.85;97.59
8894;BME280;4483;48.622;9.230;2023-06-22T03:52:23;97841.94;;;20.83;97.04
8894;BME280;4483;48.622;9.230;2023-06-22T03:54:50;97837.78;;;20.81;97.20
8894;BME280;4483;48.622;9.230;2023-06-22T03:57:17;97844.78;;;20.80;97.04
8894;BME280;4483;48.622;9.230;2023-06-22T03:59:44;97843.47;;;20.86;97.00
8894;BME280;4483;48.622;9.230;2023-06-22T04:02:12;97836.72;;;20.83;97.02
8894;BME280;4483;48.622;9.230;2023-06-22T04:04:38;97841.31;;;20.91;96.91
8894;BME280;4483;48.622;9.230;2023-06-22T04:07:05;97839.03;;;20.97;96.45
8894;BME280;4483;48.622;9.230;2023-06-22T04:09:33;97825.31;;;21.05;96.28
8894;BME280;4483;48.622;9.230;2023-06-22T04:12:00;97830.31;;;21.08;95.92
8894;BME280;4483;48.622;9.230;2023-06-22T04:14:27;97828.38;;;21.10;95.89
8894;BME280;4483;48.622;9.230;2023-06-22T04:16:53;97831.44;;;21.15;95.79
8894;BME280;4483;48.622;9.230;2023-06-22T04:19:21;97830.09;;;21.21;95.61
8894;BME280;4483;48.622;9.230;2023-06-22T04:21:48;97822.84;;;21.24;95.21
8894;BME280;4483;48.622;9.230;2023-06-22T04:24:15;97823.34;;;21.18;95.17
8894;BME280;4483;48.622;9.230;2023-06-22T04:26:42;97829.53;;;21.17;95.29
8894;BME280;4483;48.622;9.230;2023-06-22T04:29:11;97820.47;;;21.21;95.50
8894;BME280;4483;48.622;9.230;2023-06-22T04:31:38;97823.28;;;21.29;95.23
8894;BME280;4483;48.622;9.230;2023-06-22T04:34:06;97821.94;;;21.35;95.22
8894;BME280;4483;48.622;9.230;2023-06-22T04:36:41;97810.91;;;21.41;94.97
8894;BME280;4483;48.622;9.230;2023-06-22T04:39:09;97814.00;;;21.46;94.68
8894;BME280;4483;48.622;9.230;2023-06-22T04:41:36;97804.94;;;21.50;94.49
8894;BME280;4483;48.622;9.230;2023-06-22T04:44:11;97806.44;;;21.52;94.52
8894;BME280;4483;48.622;9.230;2023-06-22T04:46:38;97800.81;;;21.57;94.03
8894;BME280;4483;48.622;9.230;2023-06-22T04:49:06;97800.81;;;21.57;94.12
8894;BME280;4483;48.622;9.230;2023-06-22T04:51:41;97796.13;;;21.60;93.94
8894;BME280;4483;48.622;9.230;2023-06-22T04:54:09;97791.06;;;21.68;93.79
8894;BME280;4483;48.622;9.230;2023-06-22T04:56:36;97792.16;;;21.86;93.54
8894;BME280;4483;48.622;9.230;2023-06-22T04:59:03;97789.00;;;22.02;93.01
8894;BME280;4483;48.622;9.230;2023-06-22T05:01:29;97792.22;;;22.15;92.20
8894;BME280;4483;48.622;9.230;2023-06-22T05:03:57;97776.75;;;22.22;92.09
8894;BME280;4483;48.622;9.230;2023-06-22T05:06:26;97783.69;;;22.32;91.65
8894;BME280;4483;48.622;9.230;2023-06-22T05:08:56;97776.78;;;22.41;91.46
8894;BME280;4483;48.622;9.230;2023-06-22T05:11:24;97768.91;;;22.50;91.04
8894;BME280;4483;48.622;9.230;2023-06-22T05:13:51;97778.47;;;22.61;90.80
8894;BME280;4483;48.622;9.230;2023-06-22T05:16:17;97772.41;;;22.60;90.23
8894;BME280;4483;48.622;9.230;2023-06-22T05:18:51;97779.88;;;22.55;90.24
8894;BME280;4483;48.622;9.230;2023-06-22T05:21:18;97771.16;;;22.64;90.25
8894;BME280;4483;48.622;9.230;2023-06-22T05:23:45;97770.19;;;22.75;89.97
8894;BME280;4483;48.622;9.230;2023-06-22T05:26:13;97762.72;;;22.70;89.77
8894;BME280;4483;48.622;9.230;2023-06-22T05:28:41;97759.13;;;22.71;90.61
8894;BME280;4483;48.622;9.230;2023-06-22T05:31:11;97754.28;;;22.76;90.85
8894;BME280;4483;48.622;9.230;2023-06-22T05:33:37;97748.59;;;22.90;91.31
8894;BME280;4483;48.622;9.230;2023-06-22T05:36:05;97758.13;;;23.11;91.49
8894;BME280;4483;48.622;9.230;2023-06-22T05:38:32;97759.03;;;23.29;90.78
8894;BME280;4483;48.622;9.230;2023-06-22T05:40:59;97754.88;;;23.45;90.43
8894;BME280;4483;48.622;9.230;2023-06-22T05:43:27;97761.44;;;23.59;89.66
8894;BME280;4483;48.622;9.230;2023-06-22T05:45:54;97763.63;;;23.73;89.46
8894;BME280;4483;48.622;9.230;2023-06-22T05:48:20;97756.50;;;23.83;88.03
8894;BME280;4483;48.622;9.230;2023-06-22T05:50:47;97768.75;;;24.02;88.10
8894;BME280;4483;48.622;9.230;2023-06-22T05:53:14;97762.91;;;24.25;87.53
8894;BME280;4483;48.622;9.230;2023-06-22T05:55:40;97755.78;;;24.53;86.94
8894;BME280;4483;48.622;9.230;2023-06-22T05:58:08;97753.56;;;24.75;85.61
8894;BME280;4483;48.622;9.230;2023-06-22T06:00:36;97746.31;;;24.95;84.04
8894;BME280;4483;48.622;9.230;2023-06-22T06:03:03;97754.03;;;25.14;83.38
8894;BME280;4483;48.622;9.230;2023-06-22T06:05:30;97759.25;;;25.32;81.14
8894;BME280;4483;48.622;9.230;2023-06-22T06:07:56;97753.91;;;25.49;80.63
8894;BME280;4483;48.622;9.230;2023-06-22T06:10:23;97755.16;;;25.63;79.19
8894;BME280;4483;48.622;9.230;2023-06-22T06:12:50;97753.06;;;25.74;78.97
8894;BME280;4483;48.622;9.230;2023-06-22T06:15:17;97754.09;;;25.81;74.86
8894;BME280;4483;48.622;9.230;2023-06-22T06:17:49;97750.66;;;25.89;76.25
8894;BME280;4483;48.622;9.230;2023-06-22T06:20:19;97752.53;;;26.05;76.01
8894;BME280;4483;48.622;9.230;2023-06-22T06:22:46;97753.25;;;26.23;75.87
8894;BME280;4483;48.622;9.230;2023-06-22T06:25:12;97748.34;;;26.36;74.22
8894;BME280;4483;48.622;9.230;2023-06-22T06:27:41;97749.19;;;26.52;73.29
8894;BME280;4483;48.622;9.230;2023-06-22T06:30:09;97746.09;;;26.73;73.02
8894;BME280;4483;48.622;9.230;2023-06-22T06:32:36;97747.75;;;26.90;71.70
8894;BME280;4483;48.622;9.230;2023-06-22T06:35:05;97740.47;;;27.00;70.58
8894;BME280;4483;48.622;9.230;2023-06-22T06:37:35;97736.31;;;27.06;69.29
8894;BME280;4483;48.622;9.230;2023-06-22T06:40:02;97743.28;;;27.07;68.23
8894;BME280;4483;48.622;9.230;2023-06-22T06:42:30;97743.91;;;27.17;67.84
8894;BME280;4483;48.622;9.230;2023-06-22T06:44:57;97741.59;;;27.30;67.40
8894;BME280;4483;48.622;9.230;2023-06-22T06:47:23;97747.03;;;27.44;66.95
8894;BME280;4483;48.622;9.230;2023-06-22T06:49:50;97749.28;;;27.63;66.10
8894;BME280;4483;48.622;9.230;2023-06-22T06:52:18;97747.00;;;27.91;65.12
8894;BME280;4483;48.622;9.230;2023-06-22T06:54:45;97740.69;;;28.08;64.20
8894;BME280;4483;48.622;9.230;2023-06-22T06:57:12;97735.75;;;28.28;63.75
8894;BME280;4483;48.622;9.230;2023-06-22T06:59:40;97737.13;;;28.46;62.97
8894;BME280;4483;48.622;9.230;2023-06-22T07:02:07;97733.13;;;28.58;62.70
8894;BME280;4483;48.622;9.230;2023-06-22T07:04:33;97736.75;;;28.80;62.41
8894;BME280;4483;48.622;9.230;2023-06-22T07:07:01;97738.94;;;29.14;61.79
8894;BME280;4483;48.622;9.230;2023-06-22T07:09:30;97735.78;;;29.33;60.29
8894;BME280;4483;48.622;9.230;2023-06-22T07:11:56;97739.56;;;29.53;59.49
8894;BME280;4483;48.622;9.230;2023-06-22T07:14:23;97733.72;;;29.72;58.37
8894;BME280;4483;48.622;9.230;2023-06-22T07:16:50;97733.34;;;29.75;57.15
8894;BME280;4483;48.622;9.230;2023-06-22T07:19:24;97734.09;;;29.69;56.43
8894;BME280;4483;48.622;9.230;2023-06-22T07:21:50;97731.97;;;29.79;56.33
8894;BME280;4483;48.622;9.230;2023-06-22T07:24:17;97727.28;;;29.96;55.67
8894;BME280;4483;48.622;9.230;2023-06-22T07:26:46;97714.13;;;30.23;55.34
8894;BME280;4483;48.622;9.230;2023-06-22T07:29:13;97707.56;;;30.40;54.37
8894;BME280;4483;48.622;9.230;2023-06-22T07:31:40;97698.97;;;30.59;54.71
8894;BME280;4483;48.622;9.230;2023-06-22T07:34:06;97691.63;;;30.83;54.42
8894;BME280;4483;48.622;9.230;2023-06-22T07:36:33;97698.84;;;30.89;52.71
8894;BME280;4483;48.622;9.230;2023-06-22T07:39:01;97681.84;;;30.90;52.33
8894;BME280;4483;48.622;9.230;2023-06-22T07:41:28;97685.63;;;31.02;52.03
8894;BME280;4483;48.622;9.230;2023-06-22T07:43:56;97672.84;;;31.18;51.74
8894;BME280;4483;48.622;9.230;2023-06-22T07:46:22;97675.19;;;31.34;51.43
8894;BME280;4483;48.622;9.230;2023-06-22T07:48:49;97667.59;;;31.59;51.03
8894;BME280;4483;48.622;9.230;2023-06-22T07:51:16;97664.38;;;31.83;50.49
8894;BME280;4483;48.622;9.230;2023-06-22T07:53:44;97659.13;;;31.96;50.21
8894;BME280;4483;48.622;9.230;2023-06-22T07:56:11;97658.47;;;31.88;48.56
8894;BME280;4483;48.622;9.230;2023-06-22T07:58:37;97664.78;;;31.74;49.49
8894;BME280;4483;48.622;9.230;2023-06-22T08:01:05;97661.53;;;31.85;49.37
8894;BME280;4483;48.622;9.230;2023-06-22T08:03:32;97659.78;;;32.11;49.17
8894;BME280;4483;48.622;9.230;2023-06-22T08:05:59;97653.25;;;32.20;48.53
8894;BME280;4483;48.622;9.230;2023-06-22T08:08:25;97652.84;;;32.36;48.62
8894;BME280;4483;48.622;9.230;2023-06-22T08:10:52;97656.81;;;32.67;48.64
8894;BME280;4483;48.622;9.230;2023-06-22T08:13:19;97670.78;;;33.01;47.83
8894;BME280;4483;48.622;9.230;2023-06-22T08:15:45;97671.97;;;33.38;47.91
8894;BME280;4483;48.622;9.230;2023-06-22T08:18:13;97672.88;;;33.76;47.37
8894;BME280;4483;48.622;9.230;2023-06-22T08:20:41;97681.63;;;34.03;46.75
8894;BME280;4483;48.622;9.230;2023-06-22T08:23:08;97690.16;;;34.24;45.58
8894;BME280;4483;48.622;9.230;2023-06-22T08:25:35;97697.44;;;34.42;45.18
8894;BME280;4483;48.622;9.230;2023-06-22T08:28:03;97699.97;;;34.37;44.92
8894;BME280;4483;48.622;9.230;2023-06-22T08:30:30;97711.13;;;34.27;44.50
8894;BME280;4483;48.622;9.230;2023-06-22T08:32:56;97708.41;;;34.34;44.35
8894;BME280;4483;48.622;9.230;2023-06-22T08:35:25;97718.75;;;34.62;44.08
8894;BME280;4483;48.622;9.230;2023-06-22T08:37:51;97709.69;;;34.87;44.08
8894;BME280;4483;48.622;9.230;2023-06-22T08:40:20;97712.06;;;35.26;42.82
8894;BME280;4483;48.622;9.230;2023-06-22T08:42:47;97712.72;;;35.47;42.50
8894;BME280;4483;48.622;9.230;2023-06-22T08:45:14;97718.44;;;35.50;42.56
8894;BME280;4483;48.622;9.230;2023-06-22T08:47:41;97721.09;;;35.75;41.60
8894;BME280;4483;48.622;9.230;2023-06-22T08:50:08;97718.19;;;35.94;41.56
8894;BME280;4483;48.622;9.230;2023-06-22T08:52:37;97711.38;;;35.56;40.96
8894;BME280;4483;48.622;9.230;2023-06-22T08:55:07;97706.75;;;35.45;41.24
8894;BME280;4483;48.622;9.230;2023-06-22T08:57:34;97703.63;;;35.48;41.53
8894;BME280;4483;48.622;9.230;2023-06-22T09:00:03;97702.09;;;35.76;40.76
8894;BME280;4483;48.622;9.230;2023-06-22T09:02:36;97689.75;;;36.23;40.89
8894;BME280;4483;48.622;9.230;2023-06-22T09:05:06;97680.88;;;36.52;38.84
8894;BME280;4483;48.622;9.230;2023-06-22T09:07:32;97677.09;;;36.12;39.31
8894;BME280;4483;48.622;9.230;2023-06-22T09:10:01;97684.72;;;35.42;40.30
8894;BME280;4483;48.622;9.230;2023-06-22T09:12:29;97685.19;;;34.90;41.48
8894;BME280;4483;48.622;9.230;2023-06-22T09:14:58;97701.56;;;35.07;41.77
8894;BME280;4483;48.622;9.230;2023-06-22T09:17:25;97704.09;;;35.45;42.09
8894;BME280;4483;48.622;9.230;2023-06-22T09:19:52;97703.44;;;35.67;41.27
8894;BME280;4483;48.622;9.230;2023-06-22T09:22:19;97688.81;;;35.81;40.95
8894;BME280;4483;48.622;9.230;2023-06-22T09:24:46;97698.94;;;35.97;40.94
8894;BME280;4483;48.622;9.230;2023-06-22T09:27:14;97686.28;;;36.04;41.08
8894;BME280;4483;48.622;9.230;2023-06-22T09:29:40;97672.31;;;36.14;40.35
8894;BME280;4483;48.622;9.230;2023-06-22T09:32:07;97673.56;;;36.29;40.66
8894;BME280;4483;48.622;9.230;2023-06-22T09:34:34;97671.63;;;36.37;39.73
8894;BME280;4483;48.622;9.230;2023-06-22T09:37:01;97666.94;;;36.02;40.04
8894;BME280;4483;48.622;9.230;2023-06-22T09:39:27;97658.28;;;35.82;40.63
8894;BME280;4483;48.622;9.230;2023-06-22T09:41:54;97651.22;;;36.17;41.19
8894;BME280;4483;48.622;9.230;2023-06-22T09:44:22;97653.94;;;36.59;40.94
8894;BME280;4483;48.622;9.230;2023-06-22T09:46:48;97657.66;;;37.10;40.06
8894;BME280;4483;48.622;9.230;2023-06-22T09:49:15;97667.31;;;37.35;39.05
8894;BME280;4483;48.622;9.230;2023-06-22T09:51:42;97661.47;;;37.49;38.29
8894;BME280;4483;48.622;9.230;2023-06-22T09:54:08;97654.09;;;37.56;38.01
8894;BME280;4483;48.622;9.230;2023-06-22T09:56:35;97651.22;;;37.23;38.13
8894;BME280;4483;48.622;9.230;2023-06-22T09:59:03;97643.38;;;37.10;38.35
8894;BME280;4483;48.622;9.230;2023-06-22T10:01:31;97642.09;;;37.01;38.95
8894;BME280;4483;48.622;9.230;2023-06-22T10:03:57;97642.91;;;36.90;38.74
8894;BME280;4483;48.622;9.230;2023-06-22T10:06:24;97637.50;;;36.55;39.26
8894;BME280;4483;48.622;9.230;2023-06-22T10:08:51;97630.31;;;36.08;40.17
8894;BME280;4483;48.622;9.230;2023-06-22T10:11:18;97632.47;;;35.52;40.95
8894;BME280;4483;48.622;9.230;2023-06-22T10:13:44;97623.06;;;35.24;41.72
8894;BME280;4483;48.622;9.230;2023-06-22T10:16:11;97625.28;;;35.09;41.96
8894;BME280;4483;48.622;9.230;2023-06-22T10:18:39;97615.88;;;35.07;42.66
8894;BME280;4483;48.622;9.230;2023-06-22T10:21:05;97620.28;;;35.56;41.96
8894;BME280;4483;48.622;9.230;2023-06-22T10:23:32;97614.97;;;36.15;41.17
8894;BME280;4483;48.622;9.230;2023-06-22T10:25:59;97610.06;;;36.65;40.26
8894;BME280;4483;48.622;9.230;2023-06-22T10:28:25;97603.34;;;36.97;39.89
8894;BME280;4483;48.622;9.230;2023-06-22T10:30:52;97597.69;;;37.33;38.97
8894;BME280;4483;48.622;9.230;2023-06-22T10:33:19;97604.81;;;37.39;37.87
8894;BME280;4483;48.622;9.230;2023-06-22T10:35:47;97605.63;;;37.16;38.62
8894;BME280;4483;48.622;9.230;2023-06-22T10:38:14;97593.84;;;36.71;38.92
8894;BME280;4483;48.622;9.230;2023-06-22T10:40:40;97595.94;;;36.58;38.87
8894;BME280;4483;48.622;9.230;2023-06-22T10:43:07;97593.25;;;36.58;39.45
8894;BME280;4483;48.622;9.230;2023-06-22T10:45:34;97594.03;;;36.35;39.59
8894;BME280;4483;48.622;9.230;2023-06-22T10:48:00;97594.91;;;36.17;39.95
8894;BME280;4483;48.622;9.230;2023-06-22T10:50:27;97589.88;;;36.09;40.21
8894;BME280;4483;48.622;9.230;2023-06-22T10:52:55;97578.69;;;36.12;40.29
8894;BME280;4483;48.622;9.230;2023-06-22T10:55:22;97573.47;;;36.29;40.30
8894;BME280;4483;48.622;9.230;2023-06-22T10:57:48;97574.03;;;36.19;39.78
8894;BME280;4483;48.622;9.230;2023-06-22T11:00:15;97579.59;;;36.06;40.15
8894;BME280;4483;48.622;9.230;2023-06-22T11:02:42;97576.19;;;35.99;40.10
8894;BME280;4483;48.622;9.230;2023-06-22T11:05:09;97576.44;;;35.98;40.12
8894;BME280;4483;48.622;9.230;2023-06-22T11:07:37;97575.38;;;35.99;39.22
8894;BME280;4483;48.622;9.230;2023-06-22T11:10:06;97587.41;;;35.78;38.93
8894;BME280;4483;48.622;9.230;2023-06-22T11:12:33;97592.06;;;35.71;39.15
8894;BME280;4483;48.622;9.230;2023-06-22T11:14:59;97604.00;;;35.87;39.80
8894;BME280;4483;48.622;9.230;2023-06-22T11:17:26;97594.31;;;35.86;39.12
8894;BME280;4483;48.622;9.230;2023-06-22T11:19:52;97588.56;;;35.82;39.22
8894;BME280;4483;48.622;9.230;2023-06-22T11:22:19;97592.31;;;35.81;39.15
8894;BME280;4483;48.622;9.230;2023-06-22T11:24:46;97596.59;;;35.71;39.99
8894;BME280;4483;48.622;9.230;2023-06-22T11:27:14;97585.50;;;35.67;39.65
8894;BME280;4483;48.622;9.230;2023-06-22T11:29:40;97587.25;;;35.73;39.69
8894;BME280;4483;48.622;9.230;2023-06-22T11:32:07;97575.56;;;35.86;40.31
8894;BME280;4483;48.622;9.230;2023-06-22T11:34:34;97562.66;;;35.94;39.96
8894;BME280;4483;48.622;9.230;2023-06-22T11:37:00;97551.59;;;35.91;39.68
8894;BME280;4483;48.622;9.230;2023-06-22T11:39:27;97548.22;;;35.77;40.29
8894;BME280;4483;48.622;9.230;2023-06-22T11:41:54;97551.50;;;35.50;40.15
8894;BME280;4483;48.622;9.230;2023-06-22T11:44:22;97553.06;;;35.21;40.68
8894;BME280;4483;48.622;9.230;2023-06-22T11:46:48;97560.75;;;34.99;40.92
8894;BME280;4483;48.622;9.230;2023-06-22T11:49:15;97568.50;;;34.83;41.08
8894;BME280;4483;48.622;9.230;2023-06-22T11:51:41;97584.97;;;34.80;41.41
8894;BME280;4483;48.622;9.230;2023-06-22T11:54:08;97594.75;;;34.92;42.08
8894;BME280;4483;48.622;9.230;2023-06-22T11:56:35;97587.44;;;35.06;41.85
8894;BME280;4483;48.622;9.230;2023-06-22T11:59:01;97576.50;;;35.25;41.41
8894;BME280;4483;48.622;9.230;2023-06-22T12:01:29;97547.69;;;35.39;40.98
8894;BME280;4483;48.622;9.230;2023-06-22T12:03:58;97551.91;;;35.65;41.57
8894;BME280;4483;48.622;9.230;2023-06-22T12:06:25;97549.16;;;35.71;41.23
8894;BME280;4483;48.622;9.230;2023-06-22T12:08:52;97547.50;;;35.70;41.06
8894;BME280;4483;48.622;9.230;2023-06-22T12:11:18;97557.41;;;35.70;41.09
8894;BME280;4483;48.622;9.230;2023-06-22T12:13:45;97553.94;;;35.69;40.73
8894;BME280;4483;48.622;9.230;2023-06-22T12:16:12;97547.38;;;35.65;40.33
8894;BME280;4483;48.622;9.230;2023-06-22T12:18:40;97532.13;;;35.66;40.67
8894;BME280;4483;48.622;9.230;2023-06-22T12:21:06;97544.78;;;35.59;42.07
8894;BME280;4483;48.622;9.230;2023-06-22T12:23:33;97551.34;;;35.45;41.92
8894;BME280;4483;48.622;9.230;2023-06-22T12:26:00;97570.47;;;35.30;41.87
8894;BME280;4483;48.622;9.230;2023-06-22T12:28:26;97569.22;;;35.14;42.38
8894;BME280;4483;48.622;9.230;2023-06-22T12:30:53;97571.81;;;35.03;42.70
8894;BME280;4483;48.622;9.230;2023-06-22T12:33:20;97582.03;;;34.88;43.31
8894;BME280;4483;48.622;9.230;2023-06-22T12:35:48;97594.50;;;34.76;43.27
8894;BME280;4483;48.622;9.230;2023-06-22T12:38:15;97602.66;;;34.63;44.44
8894;BME280;4483;48.622;9.230;2023-06-22T12:40:42;97605.88;;;34.47;45.96
8894;BME280;4483;48.622;9.230;2023-06-22T12:43:08;97609.03;;;34.30;46.15
8894;BME280;4483;48.622;9.230;2023-06-22T12:45:35;97614.09;;;34.14;46.80
8894;BME280;4483;48.622;9.230;2023-06-22T12:48:01;97627.75;;;33.99;47.72
8894;BME280;4483;48.622;9.230;2023-06-22T12:50:28;97622.44;;;33.86;48.22
8894;BME280;4483;48.622;9.230;2023-06-22T12:52:56;97613.25;;;33.82;48.30
8894;BME280;4483;48.622;9.230;2023-06-22T12:55:23;97603.16;;;33.84;47.70
8894;BME280;4483;48.622;9.230;2023-06-22T12:57:50;97598.84;;;33.83;47.52
8894;BME280;4483;48.622;9.230;2023-06-22T13:00:17;97577.25;;;33.85;47.61
8894;BME280;4483;48.622;9.230;2023-06-22T13:02:43;97578.44;;;33.89;46.94
8894;BME280;4483;48.622;9.230;2023-06-22T13:05:10;97586.47;;;33.95;47.01
8894;BME280;4483;48.622;9.230;2023-06-22T13:07:37;97570.53;;;34.07;46.90
8894;BME280;4483;48.622;9.230;2023-06-22T13:10:06;97581.97;;;34.20;46.96
8894;BME280;4483;48.622;9.230;2023-06-22T13:12:33;97567.09;;;34.31;46.58
8894;BME280;4483;48.622;9.230;2023-06-22T13:14:59;97554.47;;;34.44;46.64
8894;BME280;4483;48.622;9.230;2023-06-22T13:17:28;97557.69;;;34.71;46.01
8894;BME280;4483;48.622;9.230;2023-06-22T13:19:54;97555.63;;;34.98;45.65
8894;BME280;4483;48.622;9.230;2023-06-22T13:22:29;97558.06;;;35.17;45.76
8894;BME280;4483;48.622;9.230;2023-06-22T13:24:56;97550.84;;;35.18;45.87